KCEY/CEY METAR and TAF weather

Enter ICAO airport designator
Station Type Date Time Source
KCEY METAR 2022/01/29 10:55 UTC NOAA

KCEY 291055Z AUTO 00000KT 10SM CLR M09/M12 A3035 RMK AO1


Station Type Date Time Source
KCEY Decoded METAR 2022/01/29 10:55 UTC NOAA

Station name not available
Jan 29, 2022 - 05:55 AM EST / 2022.01.29 1055 UTC
Wind: Calm:0
Visibility: 10 mile(s):0
Sky conditions: clear
Temperature: 15 F (-9 C)
Dew Point: 10 F (-12 C)
Relative Humidity: 78%
Pressure (altimeter): 30.35 in. Hg (1027 hPa)
ob: KCEY 291055Z AUTO 00000KT 10SM CLR M09/M12 A3035 RMK AO1
cycle: 11

Station Type Date Time Source
KCEY TAF UTC NOAA

Error!

Example: see airport list